Terminal Aerodrome Forecast
Issued by NWS

Home | Current Version | Previous Version | Text Only | Print | Product List | Glossary On
Versions: 1 2 3 4 5 6 7 8 9 10 11 12 13
346
FTUS43 KDVN 232320
TAFBRL
TAF
KBRL 232320Z 2400/2424 34008G16KT P6SM SKC
     FM240100 35009KT P6SM SKC
     FM240900 03005KT P6SM SKC
     FM241500 05008KT P6SM FEW040=

USA.gov is the U.S. government's official web portal to all federal, state and local government web resources and services.